sensor_id;sensor_type;location;lat;lon;timestamp;P1;durP1;ratioP1;P2;durP2;ratioP2
70313;SDS011;57725;47.526;18.986;2023-04-24T00:02:14;5.93;;;5.25;;
70313;SDS011;57725;47.526;18.986;2023-04-24T00:04:41;6.85;;;5.68;;
70313;SDS011;57725;47.526;18.986;2023-04-24T00:07:12;6.22;;;5.10;;
70313;SDS011;57725;47.526;18.986;2023-04-24T00:09:43;7.03;;;6.03;;
70313;SDS011;57725;47.526;18.986;2023-04-24T00:12:11;9.07;;;5.35;;
70313;SDS011;57725;47.526;18.986;2023-04-24T00:14:38;6.50;;;5.80;;
70313;SDS011;57725;47.526;18.986;2023-04-24T00:17:04;7.15;;;5.82;;
70313;SDS011;57725;47.526;18.986;2023-04-24T00:19:32;6.53;;;5.75;;
70313;SDS011;57725;47.526;18.986;2023-04-24T00:21:59;7.20;;;5.72;;
70313;SDS011;57725;47.526;18.986;2023-04-24T00:24:24;6.60;;;5.45;;
70313;SDS011;57725;47.526;18.986;2023-04-24T00:26:50;6.25;;;5.40;;
70313;SDS011;57725;47.526;18.986;2023-04-24T00:29:15;6.82;;;5.25;;
70313;SDS011;57725;47.526;18.986;2023-04-24T00:31:43;7.13;;;5.90;;
70313;SDS011;57725;47.526;18.986;2023-04-24T00:34:08;5.82;;;5.22;;
70313;SDS011;57725;47.526;18.986;2023-04-24T00:36:35;8.55;;;5.63;;
70313;SDS011;57725;47.526;18.986;2023-04-24T00:39:00;6.80;;;5.78;;
70313;SDS011;57725;47.526;18.986;2023-04-24T00:41:28;6.85;;;5.18;;
70313;SDS011;57725;47.526;18.986;2023-04-24T00:43:54;7.15;;;4.95;;
70313;SDS011;57725;47.526;18.986;2023-04-24T00:46:28;7.28;;;5.30;;
70313;SDS011;57725;47.526;18.986;2023-04-24T00:51:24;6.07;;;5.40;;
70313;SDS011;57725;47.526;18.986;2023-04-24T00:53:49;7.20;;;5.47;;
70313;SDS011;57725;47.526;18.986;2023-04-24T00:56:20;7.05;;;5.80;;
70313;SDS011;57725;47.526;18.986;2023-04-24T00:58:46;5.72;;;5.07;;
70313;SDS011;57725;47.526;18.986;2023-04-24T01:01:14;5.57;;;4.95;;
70313;SDS011;57725;47.526;18.986;2023-04-24T01:03:40;6.03;;;4.90;;
70313;SDS011;57725;47.526;18.986;2023-04-24T01:06:05;5.95;;;5.43;;
70313;SDS011;57725;47.526;18.986;2023-04-24T01:08:34;6.38;;;5.72;;
70313;SDS011;57725;47.526;18.986;2023-04-24T01:11:00;6.28;;;5.45;;
70313;SDS011;57725;47.526;18.986;2023-04-24T01:13:31;5.85;;;5.35;;
70313;SDS011;57725;47.526;18.986;2023-04-24T01:15:57;5.35;;;4.78;;
70313;SDS011;57725;47.526;18.986;2023-04-24T01:18:23;6.38;;;5.38;;
70313;SDS011;57725;47.526;18.986;2023-04-24T01:20:49;6.60;;;5.93;;
70313;SDS011;57725;47.526;18.986;2023-04-24T01:23:18;6.35;;;5.25;;
70313;SDS011;57725;47.526;18.986;2023-04-24T01:25:44;5.85;;;5.07;;
70313;SDS011;57725;47.526;18.986;2023-04-24T01:28:10;5.50;;;5.00;;
70313;SDS011;57725;47.526;18.986;2023-04-24T01:30:35;5.75;;;5.15;;
70313;SDS011;57725;47.526;18.986;2023-04-24T01:33:03;7.28;;;5.43;;
70313;SDS011;57725;47.526;18.986;2023-04-24T01:35:29;6.95;;;5.90;;
70313;SDS011;57725;47.526;18.986;2023-04-24T01:37:59;5.70;;;4.88;;
70313;SDS011;57725;47.526;18.986;2023-04-24T01:40:27;5.60;;;4.93;;
70313;SDS011;57725;47.526;18.986;2023-04-24T01:42:53;6.70;;;5.55;;
70313;SDS011;57725;47.526;18.986;2023-04-24T01:45:18;5.63;;;5.03;;
70313;SDS011;57725;47.526;18.986;2023-04-24T01:47:44;6.38;;;5.72;;
70313;SDS011;57725;47.526;18.986;2023-04-24T01:50:10;6.22;;;5.60;;
70313;SDS011;57725;47.526;18.986;2023-04-24T01:52:39;5.57;;;5.07;;
70313;SDS011;57725;47.526;18.986;2023-04-24T01:55:07;6.10;;;5.30;;
70313;SDS011;57725;47.526;18.986;2023-04-24T01:57:32;6.38;;;5.57;;
70313;SDS011;57725;47.526;18.986;2023-04-24T01:59:58;6.80;;;6.15;;
70313;SDS011;57725;47.526;18.986;2023-04-24T02:02:26;6.68;;;5.50;;
70313;SDS011;57725;47.526;18.986;2023-04-24T02:04:57;6.82;;;5.25;;
70313;SDS011;57725;47.526;18.986;2023-04-24T02:07:25;7.65;;;5.05;;
70313;SDS011;57725;47.526;18.986;2023-04-24T02:09:50;6.28;;;5.68;;
70313;SDS011;57725;47.526;18.986;2023-04-24T02:12:16;6.05;;;5.45;;
70313;SDS011;57725;47.526;18.986;2023-04-24T02:14:42;5.28;;;4.78;;
70313;SDS011;57725;47.526;18.986;2023-04-24T02:17:12;5.97;;;5.25;;
70313;SDS011;57725;47.526;18.986;2023-04-24T02:19:40;5.90;;;5.30;;
70313;SDS011;57725;47.526;18.986;2023-04-24T02:22:08;6.13;;;5.53;;
70313;SDS011;57725;47.526;18.986;2023-04-24T02:24:35;5.90;;;5.30;;
70313;SDS011;57725;47.526;18.986;2023-04-24T02:27:04;5.78;;;5.22;;
70313;SDS011;57725;47.526;18.986;2023-04-24T02:29:32;6.57;;;5.63;;
70313;SDS011;57725;47.526;18.986;2023-04-24T02:31:58;6.47;;;5.32;;
70313;SDS011;57725;47.526;18.986;2023-04-24T02:34:25;6.13;;;5.28;;
70313;SDS011;57725;47.526;18.986;2023-04-24T02:36:51;5.57;;;5.07;;
70313;SDS011;57725;47.526;18.986;2023-04-24T02:39:18;6.15;;;5.55;;
70313;SDS011;57725;47.526;18.986;2023-04-24T02:41:44;6.10;;;5.53;;
70313;SDS011;57725;47.526;18.986;2023-04-24T02:44:09;5.82;;;5.22;;
70313;SDS011;57725;47.526;18.986;2023-04-24T02:46:35;6.40;;;5.80;;
70313;SDS011;57725;47.526;18.986;2023-04-24T02:49:03;5.72;;;5.13;;
70313;SDS011;57725;47.526;18.986;2023-04-24T02:51:31;6.25;;;5.25;;
70313;SDS011;57725;47.526;18.986;2023-04-24T02:53:56;6.43;;;5.40;;
70313;SDS011;57725;47.526;18.986;2023-04-24T02:56:24;7.80;;;5.60;;
70313;SDS011;57725;47.526;18.986;2023-04-24T02:58:52;5.88;;;5.28;;
70313;SDS011;57725;47.526;18.986;2023-04-24T03:01:17;6.43;;;5.68;;
70313;SDS011;57725;47.526;18.986;2023-04-24T03:03:43;6.60;;;6.00;;
70313;SDS011;57725;47.526;18.986;2023-04-24T03:06:10;6.22;;;5.63;;
70313;SDS011;57725;47.526;18.986;2023-04-24T03:08:36;5.95;;;5.35;;
70313;SDS011;57725;47.526;18.986;2023-04-24T03:11:04;6.68;;;5.97;;
70313;SDS011;57725;47.526;18.986;2023-04-24T03:13:29;6.15;;;5.40;;
70313;SDS011;57725;47.526;18.986;2023-04-24T03:15:57;6.32;;;5.68;;
70313;SDS011;57725;47.526;18.986;2023-04-24T03:18:22;5.60;;;5.10;;
70313;SDS011;57725;47.526;18.986;2023-04-24T03:20:50;5.78;;;5.15;;
70313;SDS011;57725;47.526;18.986;2023-04-24T03:23:18;5.80;;;5.20;;
70313;SDS011;57725;47.526;18.986;2023-04-24T03:25:46;6.38;;;5.78;;
70313;SDS011;57725;47.526;18.986;2023-04-24T03:28:13;7.07;;;5.88;;
70313;SDS011;57725;47.526;18.986;2023-04-24T03:30:38;8.15;;;5.85;;
70313;SDS011;57725;47.526;18.986;2023-04-24T03:33:06;5.97;;;5.40;;
70313;SDS011;57725;47.526;18.986;2023-04-24T03:35:34;6.78;;;6.07;;
70313;SDS011;57725;47.526;18.986;2023-04-24T03:38:03;5.38;;;4.88;;
70313;SDS011;57725;47.526;18.986;2023-04-24T03:40:31;6.20;;;5.28;;
70313;SDS011;57725;47.526;18.986;2023-04-24T03:43:02;6.50;;;5.75;;
70313;SDS011;57725;47.526;18.986;2023-04-24T03:45:28;6.57;;;5.88;;
70313;SDS011;57725;47.526;18.986;2023-04-24T03:47:55;7.00;;;6.30;;
70313;SDS011;57725;47.526;18.986;2023-04-24T03:50:21;7.25;;;6.20;;
70313;SDS011;57725;47.526;18.986;2023-04-24T03:52:46;6.45;;;5.85;;
70313;SDS011;57725;47.526;18.986;2023-04-24T03:55:12;6.38;;;5.60;;
70313;SDS011;57725;47.526;18.986;2023-04-24T03:57:40;6.45;;;5.78;;
70313;SDS011;57725;47.526;18.986;2023-04-24T04:00:06;7.60;;;5.63;;
70313;SDS011;57725;47.526;18.986;2023-04-24T04:02:36;6.82;;;6.13;;
70313;SDS011;57725;47.526;18.986;2023-04-24T04:05:01;6.82;;;6.13;;
70313;SDS011;57725;47.526;18.986;2023-04-24T04:07:30;7.80;;;6.68;;
70313;SDS011;57725;47.526;18.986;2023-04-24T04:09:55;6.53;;;5.50;;
70313;SDS011;57725;47.526;18.986;2023-04-24T04:12:20;6.65;;;6.00;;
70313;SDS011;57725;47.526;18.986;2023-04-24T04:14:48;6.65;;;6.00;;
70313;SDS011;57725;47.526;18.986;2023-04-24T04:17:14;7.30;;;6.60;;
70313;SDS011;57725;47.526;18.986;2023-04-24T04:19:42;6.93;;;6.28;;
70313;SDS011;57725;47.526;18.986;2023-04-24T04:22:09;7.03;;;6.32;;
70313;SDS011;57725;47.526;18.986;2023-04-24T04:24:35;6.43;;;5.68;;
70313;SDS011;57725;47.526;18.986;2023-04-24T04:27:05;6.53;;;5.88;;
70313;SDS011;57725;47.526;18.986;2023-04-24T04:29:30;6.70;;;5.97;;
70313;SDS011;57725;47.526;18.986;2023-04-24T04:31:59;6.43;;;5.82;;
70313;SDS011;57725;47.526;18.986;2023-04-24T04:34:29;6.95;;;6.20;;
70313;SDS011;57725;47.526;18.986;2023-04-24T04:36:56;6.45;;;5.68;;
70313;SDS011;57725;47.526;18.986;2023-04-24T04:39:24;6.63;;;5.93;;
70313;SDS011;57725;47.526;18.986;2023-04-24T04:41:50;6.78;;;6.03;;
70313;SDS011;57725;47.526;18.986;2023-04-24T04:44:20;6.47;;;5.88;;
70313;SDS011;57725;47.526;18.986;2023-04-24T04:46:45;7.05;;;6.35;;
70313;SDS011;57725;47.526;18.986;2023-04-24T04:49:11;6.78;;;6.05;;
70313;SDS011;57725;47.526;18.986;2023-04-24T04:51:36;8.02;;;5.97;;
70313;SDS011;57725;47.526;18.986;2023-04-24T04:54:06;7.00;;;6.40;;
70313;SDS011;57725;47.526;18.986;2023-04-24T04:56:32;6.68;;;6.00;;
70313;SDS011;57725;47.526;18.986;2023-04-24T04:58:58;6.40;;;5.80;;
70313;SDS011;57725;47.526;18.986;2023-04-24T05:01:24;6.60;;;5.90;;
70313;SDS011;57725;47.526;18.986;2023-04-24T05:03:50;6.75;;;6.05;;
70313;SDS011;57725;47.526;18.986;2023-04-24T05:06:16;6.55;;;5.95;;
70313;SDS011;57725;47.526;18.986;2023-04-24T05:08:44;6.75;;;6.13;;
70313;SDS011;57725;47.526;18.986;2023-04-24T05:11:09;6.28;;;5.68;;
70313;SDS011;57725;47.526;18.986;2023-04-24T05:13:37;8.73;;;7.32;;
70313;SDS011;57725;47.526;18.986;2023-04-24T05:16:05;6.22;;;5.63;;
70313;SDS011;57725;47.526;18.986;2023-04-24T05:18:30;7.65;;;6.85;;
70313;SDS011;57725;47.526;18.986;2023-04-24T05:20:56;6.78;;;6.07;;
70313;SDS011;57725;47.526;18.986;2023-04-24T05:23:21;7.15;;;6.45;;
70313;SDS011;57725;47.526;18.986;2023-04-24T05:25:49;6.72;;;5.65;;
70313;SDS011;57725;47.526;18.986;2023-04-24T05:28:19;6.60;;;6.00;;
70313;SDS011;57725;47.526;18.986;2023-04-24T05:30:45;7.47;;;6.28;;
70313;SDS011;57725;47.526;18.986;2023-04-24T05:33:13;6.85;;;5.88;;
70313;SDS011;57725;47.526;18.986;2023-04-24T05:35:40;7.00;;;6.20;;
70313;SDS011;57725;47.526;18.986;2023-04-24T05:38:10;6.50;;;5.85;;
70313;SDS011;57725;47.526;18.986;2023-04-24T05:40:39;6.53;;;5.93;;
70313;SDS011;57725;47.526;18.986;2023-04-24T05:43:09;6.63;;;5.95;;
70313;SDS011;57725;47.526;18.986;2023-04-24T05:45:37;7.18;;;6.43;;
70313;SDS011;57725;47.526;18.986;2023-04-24T05:48:03;6.28;;;5.68;;
70313;SDS011;57725;47.526;18.986;2023-04-24T05:50:28;6.63;;;5.93;;
70313;SDS011;57725;47.526;18.986;2023-04-24T05:52:54;6.75;;;5.63;;
70313;SDS011;57725;47.526;18.986;2023-04-24T05:55:23;6.43;;;5.82;;
70313;SDS011;57725;47.526;18.986;2023-04-24T05:57:50;7.28;;;6.57;;
70313;SDS011;57725;47.526;18.986;2023-04-24T06:00:16;6.78;;;5.90;;
70313;SDS011;57725;47.526;18.986;2023-04-24T06:02:44;6.93;;;6.22;;
70313;SDS011;57725;47.526;18.986;2023-04-24T06:05:12;6.50;;;5.90;;
70313;SDS011;57725;47.526;18.986;2023-04-24T06:07:37;7.78;;;6.97;;
70313;SDS011;57725;47.526;18.986;2023-04-24T06:10:05;7.55;;;6.30;;
70313;SDS011;57725;47.526;18.986;2023-04-24T06:12:34;7.13;;;6.40;;
70313;SDS011;57725;47.526;18.986;2023-04-24T06:14:59;6.88;;;6.13;;
70313;SDS011;57725;47.526;18.986;2023-04-24T06:17:25;7.32;;;6.63;;
70313;SDS011;57725;47.526;18.986;2023-04-24T06:19:50;6.95;;;6.13;;
70313;SDS011;57725;47.526;18.986;2023-04-24T06:22:18;6.53;;;5.85;;
70313;SDS011;57725;47.526;18.986;2023-04-24T06:24:43;6.75;;;6.05;;
70313;SDS011;57725;47.526;18.986;2023-04-24T06:27:09;6.85;;;6.15;;
70313;SDS011;57725;47.526;18.986;2023-04-24T06:29:35;7.60;;;6.80;;
70313;SDS011;57725;47.526;18.986;2023-04-24T06:32:01;6.95;;;6.00;;
70313;SDS011;57725;47.526;18.986;2023-04-24T06:34:27;7.35;;;6.63;;
70313;SDS011;57725;47.526;18.986;2023-04-24T06:36:53;6.90;;;6.03;;
70313;SDS011;57725;47.526;18.986;2023-04-24T06:39:19;7.38;;;6.57;;
70313;SDS011;57725;47.526;18.986;2023-04-24T06:42:01;8.00;;;7.22;;
70313;SDS011;57725;47.526;18.986;2023-04-24T06:44:27;6.78;;;6.07;;
70313;SDS011;57725;47.526;18.986;2023-04-24T06:46:55;6.57;;;5.90;;
70313;SDS011;57725;47.526;18.986;2023-04-24T06:49:22;7.38;;;6.68;;
70313;SDS011;57725;47.526;18.986;2023-04-24T06:51:48;8.40;;;7.05;;
70313;SDS011;57725;47.526;18.986;2023-04-24T06:54:13;8.45;;;6.45;;
70313;SDS011;57725;47.526;18.986;2023-04-24T06:56:43;6.75;;;6.15;;
70313;SDS011;57725;47.526;18.986;2023-04-24T06:59:11;8.13;;;7.32;;
70313;SDS011;57725;47.526;18.986;2023-04-24T07:01:36;7.97;;;7.18;;
70313;SDS011;57725;47.526;18.986;2023-04-24T07:04:04;7.25;;;6.55;;
70313;SDS011;57725;47.526;18.986;2023-04-24T07:06:30;7.57;;;6.30;;
70313;SDS011;57725;47.526;18.986;2023-04-24T07:08:55;7.22;;;6.50;;
70313;SDS011;57725;47.526;18.986;2023-04-24T07:11:24;7.60;;;6.85;;
70313;SDS011;57725;47.526;18.986;2023-04-24T07:13:56;7.97;;;6.88;;
70313;SDS011;57725;47.526;18.986;2023-04-24T07:16:22;7.05;;;6.35;;
70313;SDS011;57725;47.526;18.986;2023-04-24T07:18:47;7.80;;;6.75;;
70313;SDS011;57725;47.526;18.986;2023-04-24T07:21:15;7.82;;;6.55;;
70313;SDS011;57725;47.526;18.986;2023-04-24T07:23:40;8.70;;;7.05;;
70313;SDS011;57725;47.526;18.986;2023-04-24T07:26:06;7.20;;;6.43;;
70313;SDS011;57725;47.526;18.986;2023-04-24T07:28:32;9.30;;;6.28;;
70313;SDS011;57725;47.526;18.986;2023-04-24T07:30:59;7.95;;;7.15;;
70313;SDS011;57725;47.526;18.986;2023-04-24T07:33:28;7.22;;;6.53;;
70313;SDS011;57725;47.526;18.986;2023-04-24T07:35:55;7.50;;;6.68;;
70313;SDS011;57725;47.526;18.986;2023-04-24T07:38:21;7.78;;;6.97;;
70313;SDS011;57725;47.526;18.986;2023-04-24T07:40:47;8.23;;;7.32;;
70313;SDS011;57725;47.526;18.986;2023-04-24T07:43:13;9.07;;;6.85;;
70313;SDS011;57725;47.526;18.986;2023-04-24T07:45:41;7.18;;;6.45;;
70313;SDS011;57725;47.526;18.986;2023-04-24T07:48:06;9.43;;;7.03;;
70313;SDS011;57725;47.526;18.986;2023-04-24T07:50:34;9.65;;;7.13;;
70313;SDS011;57725;47.526;18.986;2023-04-24T07:53:00;8.48;;;7.50;;
70313;SDS011;57725;47.526;18.986;2023-04-24T07:55:28;7.85;;;7.05;;
70313;SDS011;57725;47.526;18.986;2023-04-24T07:57:53;9.57;;;7.50;;
70313;SDS011;57725;47.526;18.986;2023-04-24T08:00:19;7.80;;;7.00;;
70313;SDS011;57725;47.526;18.986;2023-04-24T08:02:45;8.52;;;7.70;;
70313;SDS011;57725;47.526;18.986;2023-04-24T08:05:13;8.20;;;7.40;;
70313;SDS011;57725;47.526;18.986;2023-04-24T08:07:41;8.30;;;7.35;;
70313;SDS011;57725;47.526;18.986;2023-04-24T08:10:09;9.60;;;7.65;;
70313;SDS011;57725;47.526;18.986;2023-04-24T08:12:36;8.43;;;7.53;;
70313;SDS011;57725;47.526;18.986;2023-04-24T08:15:04;9.68;;;8.02;;
70313;SDS011;57725;47.526;18.986;2023-04-24T08:17:30;8.90;;;8.00;;
70313;SDS011;57725;47.526;18.986;2023-04-24T08:19:58;8.18;;;7.32;;
70313;SDS011;57725;47.526;18.986;2023-04-24T08:22:26;8.70;;;7.30;;
70313;SDS011;57725;47.526;18.986;2023-04-24T08:24:55;8.70;;;7.57;;
70313;SDS011;57725;47.526;18.986;2023-04-24T08:27:23;7.85;;;6.53;;
70313;SDS011;57725;47.526;18.986;2023-04-24T08:29:52;8.73;;;7.20;;
70313;SDS011;57725;47.526;18.986;2023-04-24T08:32:18;8.25;;;7.35;;
70313;SDS011;57725;47.526;18.986;2023-04-24T08:34:46;9.48;;;8.18;;
70313;SDS011;57725;47.526;18.986;2023-04-24T08:37:14;7.60;;;6.80;;
70313;SDS011;57725;47.526;18.986;2023-04-24T08:39:40;8.25;;;7.13;;
70313;SDS011;57725;47.526;18.986;2023-04-24T08:42:05;8.02;;;7.22;;
70313;SDS011;57725;47.526;18.986;2023-04-24T08:44:34;9.40;;;7.55;;
70313;SDS011;57725;47.526;18.986;2023-04-24T08:47:04;9.05;;;7.55;;
70313;SDS011;57725;47.526;18.986;2023-04-24T08:49:32;7.60;;;6.80;;
70313;SDS011;57725;47.526;18.986;2023-04-24T08:52:01;8.00;;;7.20;;
70313;SDS011;57725;47.526;18.986;2023-04-24T08:54:29;7.80;;;6.95;;
70313;SDS011;57725;47.526;18.986;2023-04-24T08:56:58;8.45;;;7.65;;
70313;SDS011;57725;47.526;18.986;2023-04-24T08:59:28;8.88;;;7.95;;
70313;SDS011;57725;47.526;18.986;2023-04-24T09:01:55;8.55;;;7.65;;
70313;SDS011;57725;47.526;18.986;2023-04-24T09:04:21;8.07;;;7.05;;
70313;SDS011;57725;47.526;18.986;2023-04-24T09:06:53;8.60;;;6.97;;
70313;SDS011;57725;47.526;18.986;2023-04-24T09:09:22;8.40;;;7.15;;
70313;SDS011;57725;47.526;18.986;2023-04-24T09:11:50;8.20;;;7.30;;
70313;SDS011;57725;47.526;18.986;2023-04-24T09:14:20;8.75;;;7.25;;
70313;SDS011;57725;47.526;18.986;2023-04-24T09:16:48;8.52;;;7.38;;
70313;SDS011;57725;47.526;18.986;2023-04-24T09:19:15;7.78;;;6.97;;
70313;SDS011;57725;47.526;18.986;2023-04-24T09:21:50;9.35;;;7.95;;
70313;SDS011;57725;47.526;18.986;2023-04-24T09:24:18;10.02;;;8.50;;
70313;SDS011;57725;47.526;18.986;2023-04-24T09:26:48;8.43;;;7.53;;
70313;SDS011;57725;47.526;18.986;2023-04-24T09:29:17;7.68;;;6.88;;
70313;SDS011;57725;47.526;18.986;2023-04-24T09:31:44;8.05;;;7.25;;
70313;SDS011;57725;47.526;18.986;2023-04-24T09:34:13;10.73;;;7.65;;
70313;SDS011;57725;47.526;18.986;2023-04-24T09:36:39;7.82;;;6.95;;
70313;SDS011;57725;47.526;18.986;2023-04-24T09:39:07;9.70;;;7.53;;
70313;SDS011;57725;47.526;18.986;2023-04-24T09:46:45;7.90;;;7.10;;
70313;SDS011;57725;47.526;18.986;2023-04-24T09:49:21;8.60;;;7.70;;
70313;SDS011;57725;47.526;18.986;2023-04-24T09:51:49;8.45;;;7.40;;
70313;SDS011;57725;47.526;18.986;2023-04-24T09:54:20;11.13;;;7.68;;
70313;SDS011;57725;47.526;18.986;2023-04-24T09:56:50;8.35;;;7.40;;
70313;SDS011;57725;47.526;18.986;2023-04-24T09:59:16;8.52;;;6.88;;
70313;SDS011;57725;47.526;18.986;2023-04-24T10:01:44;7.57;;;6.72;;
70313;SDS011;57725;47.526;18.986;2023-04-24T10:04:17;8.50;;;7.65;;
70313;SDS011;57725;47.526;18.986;2023-04-24T10:06:48;8.30;;;7.57;;
70313;SDS011;57725;47.526;18.986;2023-04-24T10:09:15;8.82;;;7.00;;
70313;SDS011;57725;47.526;18.986;2023-04-24T10:11:44;8.02;;;7.22;;
70313;SDS011;57725;47.526;18.986;2023-04-24T10:14:14;8.43;;;7.30;;
70313;SDS011;57725;47.526;18.986;2023-04-24T10:16:41;7.97;;;6.88;;
70313;SDS011;57725;47.526;18.986;2023-04-24T10:19:08;7.88;;;7.15;;
70313;SDS011;57725;47.526;18.986;2023-04-24T10:21:38;8.15;;;6.90;;
70313;SDS011;57725;47.526;18.986;2023-04-24T10:24:07;8.38;;;6.75;;
70313;SDS011;57725;47.526;18.986;2023-04-24T10:26:34;7.93;;;7.13;;
70313;SDS011;57725;47.526;18.986;2023-04-24T10:29:02;9.20;;;7.68;;
70313;SDS011;57725;47.526;18.986;2023-04-24T10:31:34;8.48;;;6.85;;
70313;SDS011;57725;47.526;18.986;2023-04-24T10:34:07;8.60;;;7.35;;
70313;SDS011;57725;47.526;18.986;2023-04-24T10:36:34;9.10;;;7.50;;
70313;SDS011;57725;47.526;18.986;2023-04-24T10:39:02;7.78;;;6.90;;
70313;SDS011;57725;47.526;18.986;2023-04-24T10:41:31;8.55;;;7.32;;
70313;SDS011;57725;47.526;18.986;2023-04-24T10:44:10;10.77;;;7.35;;
70313;SDS011;57725;47.526;18.986;2023-04-24T10:46:38;8.50;;;7.55;;
70313;SDS011;57725;47.526;18.986;2023-04-24T10:49:08;8.73;;;7.82;;
70313;SDS011;57725;47.526;18.986;2023-04-24T10:51:49;8.48;;;7.00;;
70313;SDS011;57725;47.526;18.986;2023-04-24T10:54:25;8.30;;;7.30;;
70313;SDS011;57725;47.526;18.986;2023-04-24T11:02:49;9.35;;;7.75;;
70313;SDS011;57725;47.526;18.986;2023-04-24T11:05:18;9.02;;;7.78;;
70313;SDS011;57725;47.526;18.986;2023-04-24T11:10:38;8.65;;;7.78;;
70313;SDS011;57725;47.526;18.986;2023-04-24T11:13:04;8.30;;;7.50;;
70313;SDS011;57725;47.526;18.986;2023-04-24T11:15:29;8.43;;;7.53;;
70313;SDS011;57725;47.526;18.986;2023-04-24T11:17:55;8.73;;;7.82;;
70313;SDS011;57725;47.526;18.986;2023-04-24T11:20:22;8.82;;;7.93;;
70313;SDS011;57725;47.526;18.986;2023-04-24T11:22:48;8.07;;;7.28;;
70313;SDS011;57725;47.526;18.986;2023-04-24T11:25:20;9.45;;;7.65;;
70313;SDS011;57725;47.526;18.986;2023-04-24T11:27:47;8.13;;;7.13;;
70313;SDS011;57725;47.526;18.986;2023-04-24T11:30:18;9.05;;;8.15;;
70313;SDS011;57725;47.526;18.986;2023-04-24T11:32:48;8.65;;;7.75;;
70313;SDS011;57725;47.526;18.986;2023-04-24T11:35:19;11.43;;;7.97;;
70313;SDS011;57725;47.526;18.986;2023-04-24T11:37:48;8.73;;;7.35;;
70313;SDS011;57725;47.526;18.986;2023-04-24T11:40:15;8.25;;;7.22;;
70313;SDS011;57725;47.526;18.986;2023-04-24T11:42:42;8.82;;;7.50;;
70313;SDS011;57725;47.526;18.986;2023-04-24T11:45:13;9.10;;;7.63;;
70313;SDS011;57725;47.526;18.986;2023-04-24T11:47:45;9.63;;;7.53;;
70313;SDS011;57725;47.526;18.986;2023-04-24T11:50:11;8.00;;;7.20;;
70313;SDS011;57725;47.526;18.986;2023-04-24T11:52:43;8.65;;;7.25;;
70313;SDS011;57725;47.526;18.986;2023-04-24T11:57:49;9.60;;;7.28;;
70313;SDS011;57725;47.526;18.986;2023-04-24T12:00:15;8.93;;;7.90;;
70313;SDS011;57725;47.526;18.986;2023-04-24T12:02:51;8.57;;;7.15;;
70313;SDS011;57725;47.526;18.986;2023-04-24T12:05:23;8.00;;;6.60;;
70313;SDS011;57725;47.526;18.986;2023-04-24T12:07:50;7.85;;;6.97;;
70313;SDS011;57725;47.526;18.986;2023-04-24T12:10:20;8.70;;;7.60;;
70313;SDS011;57725;47.526;18.986;2023-04-24T12:12:46;8.50;;;7.28;;
70313;SDS011;57725;47.526;18.986;2023-04-24T12:15:16;10.05;;;6.68;;
70313;SDS011;57725;47.526;18.986;2023-04-24T12:17:42;8.48;;;6.72;;
70313;SDS011;57725;47.526;18.986;2023-04-24T12:20:08;7.85;;;6.22;;
70313;SDS011;57725;47.526;18.986;2023-04-24T12:25:12;8.77;;;6.25;;
70313;SDS011;57725;47.526;18.986;2023-04-24T12:27:40;7.25;;;6.53;;
70313;SDS011;57725;47.526;18.986;2023-04-24T12:30:09;6.88;;;6.15;;
70313;SDS011;57725;47.526;18.986;2023-04-24T12:32:40;7.85;;;7.05;;
70313;SDS011;57725;47.526;18.986;2023-04-24T12:35:09;7.95;;;7.15;;
70313;SDS011;57725;47.526;18.986;2023-04-24T12:37:34;6.78;;;6.07;;
70313;SDS011;57725;47.526;18.986;2023-04-24T12:42:34;7.20;;;6.25;;
70313;SDS011;57725;47.526;18.986;2023-04-24T12:45:03;7.25;;;6.45;;
70313;SDS011;57725;47.526;18.986;2023-04-24T12:47:37;7.13;;;6.40;;
70313;SDS011;57725;47.526;18.986;2023-04-24T12:50:03;7.10;;;5.85;;
70313;SDS011;57725;47.526;18.986;2023-04-24T12:52:34;6.78;;;6.07;;
70313;SDS011;57725;47.526;18.986;2023-04-24T12:55:00;7.30;;;6.13;;
70313;SDS011;57725;47.526;18.986;2023-04-24T12:57:28;6.68;;;5.75;;
70313;SDS011;57725;47.526;18.986;2023-04-24T12:59:55;8.27;;;5.93;;
70313;SDS011;57725;47.526;18.986;2023-04-24T13:02:27;6.05;;;5.45;;
70313;SDS011;57725;47.526;18.986;2023-04-24T13:04:54;7.20;;;5.25;;
70313;SDS011;57725;47.526;18.986;2023-04-24T13:07:23;6.38;;;5.43;;
70313;SDS011;57725;47.526;18.986;2023-04-24T13:09:49;7.07;;;5.55;;
70313;SDS011;57725;47.526;18.986;2023-04-24T13:12:16;6.20;;;5.60;;
70313;SDS011;57725;47.526;18.986;2023-04-24T13:14:42;5.85;;;5.25;;
70313;SDS011;57725;47.526;18.986;2023-04-24T13:17:10;6.25;;;5.65;;
70313;SDS011;57725;47.526;18.986;2023-04-24T13:19:39;5.93;;;5.03;;
70313;SDS011;57725;47.526;18.986;2023-04-24T13:22:06;6.50;;;5.47;;
70313;SDS011;57725;47.526;18.986;2023-04-24T13:24:35;6.13;;;5.18;;
70313;SDS011;57725;47.526;18.986;2023-04-24T13:27:00;8.10;;;5.68;;
70313;SDS011;57725;47.526;18.986;2023-04-24T13:29:26;6.50;;;5.40;;
70313;SDS011;57725;47.526;18.986;2023-04-24T13:31:54;5.97;;;5.38;;
70313;SDS011;57725;47.526;18.986;2023-04-24T13:34:26;6.32;;;5.32;;
70313;SDS011;57725;47.526;18.986;2023-04-24T13:36:57;7.18;;;5.43;;
70313;SDS011;57725;47.526;18.986;2023-04-24T13:39:27;5.28;;;4.72;;
70313;SDS011;57725;47.526;18.986;2023-04-24T13:41:52;6.20;;;4.90;;
70313;SDS011;57725;47.526;18.986;2023-04-24T13:44:19;5.68;;;4.68;;
70313;SDS011;57725;47.526;18.986;2023-04-24T13:46:46;6.63;;;5.25;;
70313;SDS011;57725;47.526;18.986;2023-04-24T13:49:15;5.82;;;5.22;;
70313;SDS011;57725;47.526;18.986;2023-04-24T13:51:41;5.68;;;4.38;;
70313;SDS011;57725;47.526;18.986;2023-04-24T13:54:09;5.32;;;4.82;;
70313;SDS011;57725;47.526;18.986;2023-04-24T13:56:37;6.20;;;5.25;;
70313;SDS011;57725;47.526;18.986;2023-04-24T13:59:06;5.43;;;4.80;;
70313;SDS011;57725;47.526;18.986;2023-04-24T14:01:34;5.47;;;4.90;;
70313;SDS011;57725;47.526;18.986;2023-04-24T14:04:02;5.30;;;4.80;;
70313;SDS011;57725;47.526;18.986;2023-04-24T14:06:27;5.75;;;4.68;;
70313;SDS011;57725;47.526;18.986;2023-04-24T14:08:53;5.18;;;4.68;;
70313;SDS011;57725;47.526;18.986;2023-04-24T14:11:35;5.65;;;4.93;;
70313;SDS011;57725;47.526;18.986;2023-04-24T14:14:07;5.80;;;4.82;;
70313;SDS011;57725;47.526;18.986;2023-04-24T14:16:34;5.63;;;5.07;;
70313;SDS011;57725;47.526;18.986;2023-04-24T14:19:00;6.03;;;4.82;;
70313;SDS011;57725;47.526;18.986;2023-04-24T14:21:28;5.65;;;5.05;;
70313;SDS011;57725;47.526;18.986;2023-04-24T14:23:56;5.57;;;4.97;;
70313;SDS011;57725;47.526;18.986;2023-04-24T14:26:21;5.25;;;4.55;;
70313;SDS011;57725;47.526;18.986;2023-04-24T14:28:49;5.20;;;4.70;;
70313;SDS011;57725;47.526;18.986;2023-04-24T14:31:20;5.50;;;5.00;;
70313;SDS011;57725;47.526;18.986;2023-04-24T14:33:45;5.03;;;4.63;;
70313;SDS011;57725;47.526;18.986;2023-04-24T14:36:11;5.78;;;4.95;;
70313;SDS011;57725;47.526;18.986;2023-04-24T14:38:36;5.32;;;4.82;;
70313;SDS011;57725;47.526;18.986;2023-04-24T14:41:02;4.72;;;4.10;;
70313;SDS011;57725;47.526;18.986;2023-04-24T14:43:33;5.18;;;4.70;;
70313;SDS011;57725;47.526;18.986;2023-04-24T14:46:03;8.35;;;5.78;;
70313;SDS011;57725;47.526;18.986;2023-04-24T14:48:28;6.93;;;4.60;;
70313;SDS011;57725;47.526;18.986;2023-04-24T14:50:54;6.38;;;5.13;;
70313;SDS011;57725;47.526;18.986;2023-04-24T14:53:22;5.18;;;4.68;;
70313;SDS011;57725;47.526;18.986;2023-04-24T14:55:47;5.47;;;4.97;;
70313;SDS011;57725;47.526;18.986;2023-04-24T14:58:12;5.68;;;5.18;;
70313;SDS011;57725;47.526;18.986;2023-04-24T15:00:43;5.30;;;4.43;;